Time;durP1;ratioP1;P1;durP2;ratioP2;P2;SDS_P1;SDS_P2;PMS_P1;PMS_P2;Temp;Humidity;BMP_temperature;BMP_pressure;BME280_temperature;BME280_humidity;BME280_pressure;Samples;Min_cycle;Max_cycle;Signal;HPM_P1;HPM_P2
2023/07/21 00:01:13;;;;;;;4.00;2.53;;;13.20;99.90;;;;;;5060700;28;20697;-71
2023/07/21 00:03:39;;;;;;;4.32;3.00;;;13.20;99.90;;;;;;5029381;28;20119;-72
2023/07/21 00:06:07;;;;;;;4.85;3.20;;;13.20;99.90;;;;;;5039738;28;20047;-71
2023/07/21 00:08:37;;;;;;;3.55;2.38;;;13.20;99.90;;;;;;5062416;28;20056;-71
2023/07/21 00:11:04;;;;;;;3.90;2.65;;;13.20;99.90;;;;;;5051775;28;20037;-71
2023/07/21 00:13:34;;;;;;;4.55;2.58;;;13.20;99.90;;;;;;5043821;28;20072;-72
2023/07/21 00:16:03;;;;;;;5.32;3.05;;;13.20;99.90;;;;;;5053047;28;20104;-71
2023/07/21 00:18:30;;;;;;;5.77;3.27;;;13.10;99.90;;;;;;5040941;28;20045;-72
2023/07/21 00:20:56;;;;;;;5.20;2.92;;;13.20;99.90;;;;;;5056231;28;20568;-71
2023/07/21 00:23:26;;;;;;;4.30;2.67;;;13.10;99.90;;;;;;5059691;28;20060;-71
2023/07/21 00:25:52;;;;;;;5.07;2.90;;;13.10;99.90;;;;;;5053290;28;20171;-71
2023/07/21 00:28:20;;;;;;;5.32;2.95;;;13.10;99.90;;;;;;5040532;28;20127;-71
2023/07/21 00:30:47;;;;;;;3.85;2.50;;;13.10;99.90;;;;;;5054019;28;20721;-71
2023/07/21 00:33:14;;;;;;;5.70;2.42;;;13.10;99.90;;;;;;5055345;28;20051;-71
2023/07/21 00:35:40;;;;;;;4.03;2.83;;;13.10;99.90;;;;;;5030123;28;20102;-71
2023/07/21 00:38:06;;;;;;;5.68;2.72;;;13.00;99.90;;;;;;5046330;28;20045;-71
2023/07/21 00:40:37;;;;;;;3.63;2.40;;;13.10;99.90;;;;;;5047973;28;20045;-71
2023/07/21 00:43:04;;;;;;;4.68;2.40;;;13.10;99.90;;;;;;5050549;28;20263;-71
2023/07/21 00:45:34;;;;;;;4.15;2.40;;;13.10;99.90;;;;;;5039817;28;20110;-71
2023/07/21 00:48:03;;;;;;;3.97;2.70;;;13.10;99.90;;;;;;5059619;28;20051;-71
2023/07/21 00:50:29;;;;;;;4.47;2.70;;;13.00;99.90;;;;;;5046581;28;20051;-71
2023/07/21 00:52:57;;;;;;;4.45;2.75;;;13.00;99.90;;;;;;5042667;28;21209;-71
2023/07/21 00:55:24;;;;;;;4.88;2.85;;;13.10;99.90;;;;;;5044961;28;20692;-71
2023/07/21 00:57:49;;;;;;;5.65;2.85;;;13.10;99.90;;;;;;5042973;28;20731;-71
2023/07/21 01:00:15;;;;;;;4.90;2.72;;;13.00;99.90;;;;;;5054213;28;20127;-71
2023/07/21 01:02:41;;;;;;;3.95;2.60;;;13.00;99.90;;;;;;5060080;28;20067;-71
2023/07/21 01:05:08;;;;;;;3.63;2.50;;;13.00;99.90;;;;;;5044410;28;20048;-71
2023/07/21 01:07:35;;;;;;;4.28;2.85;;;13.00;99.90;;;;;;5028961;28;20133;-71
2023/07/21 01:10:02;;;;;;;3.97;2.60;;;13.00;99.90;;;;;;5047560;28;21252;-71
2023/07/21 01:12:28;;;;;;;5.32;2.85;;;13.00;99.90;;;;;;5045073;28;20162;-71
2023/07/21 01:14:54;;;;;;;4.00;2.50;;;13.00;99.90;;;;;;5044456;28;20059;-71
2023/07/21 01:17:21;;;;;;;6.03;2.50;;;12.90;99.90;;;;;;5045740;28;20525;-71
2023/07/21 01:19:49;;;;;;;3.65;2.90;;;12.90;99.90;;;;;;5042119;28;20469;-71
2023/07/21 01:22:44;;;;;;;4.32;2.28;;;12.90;99.90;;;;;;5016404;28;20072;-71
2023/07/21 01:25:12;;;;;;;4.10;3.20;;;12.90;99.90;;;;;;5055793;28;20060;-72
2023/07/21 01:27:41;;;;;;;3.40;2.40;;;12.90;99.90;;;;;;5077087;28;20064;-71
2023/07/21 01:30:14;;;;;;;5.65;3.08;;;12.90;99.90;;;;;;5056349;28;20115;-71
2023/07/21 01:32:41;;;;;;;6.53;3.15;;;12.90;99.90;;;;;;5058029;28;20072;-71
2023/07/21 01:35:09;;;;;;;4.18;3.00;;;12.80;99.90;;;;;;5058460;28;20057;-71
2023/07/21 01:37:39;;;;;;;3.92;2.53;;;12.90;99.90;;;;;;5058935;28;20112;-71
2023/07/21 01:40:13;;;;;;;4.60;2.72;;;12.80;99.90;;;;;;5040987;28;20134;-71
2023/07/21 01:42:41;;;;;;;3.58;2.70;;;12.80;99.90;;;;;;5053018;28;20040;-71
2023/07/21 01:45:10;;;;;;;;;;;12.80;99.90;;;;;;5037665;28;20049;-71
2023/07/21 01:47:36;;;;;;;4.07;2.80;;;12.70;99.90;;;;;;5053350;28;20022;-71
2023/07/21 01:50:06;;;;;;;5.55;2.90;;;12.70;99.90;;;;;;5040190;28;20083;-71
2023/07/21 01:52:36;;;;;;;5.05;3.03;;;12.70;99.90;;;;;;5054314;28;20491;-71
2023/07/21 01:55:13;;;;;;;4.27;3.23;;;12.70;99.90;;;;;;5039434;28;20457;-71
2023/07/21 01:57:46;;;;;;;7.13;3.50;;;12.60;99.90;;;;;;5046475;28;20298;-71
2023/07/21 02:00:13;;;;;;;5.22;3.05;;;12.60;99.90;;;;;;5036918;28;20053;-71
2023/07/21 02:02:47;;;;;;;3.17;2.47;;;12.50;99.90;;;;;;5042207;28;20395;-72
2023/07/21 02:05:20;;;;;;;4.68;2.60;;;12.40;99.90;;;;;;5056782;28;20091;-71
2023/07/21 02:07:46;;;;;;;3.85;2.58;;;12.40;99.90;;;;;;5059670;28;20040;-71
2023/07/21 02:10:12;;;;;;;5.28;3.30;;;12.40;99.90;;;;;;5055030;28;20036;-71
2023/07/21 02:12:39;;;;;;;5.30;3.80;;;12.40;99.90;;;;;;5057440;28;20044;-71
2023/07/21 02:15:06;;;;;;;5.97;3.60;;;12.50;99.90;;;;;;5057870;28;20461;-71
2023/07/21 02:17:33;;;;;;;4.95;3.20;;;12.40;99.90;;;;;;5058652;28;20052;-71
2023/07/21 02:19:59;;;;;;;4.22;2.85;;;12.40;99.90;;;;;;5058380;28;20499;-71
2023/07/21 02:22:25;;;;;;;5.72;3.70;;;12.40;99.90;;;;;;5039820;28;20238;-71
2023/07/21 02:24:51;;;;;;;4.50;3.45;;;12.40;99.90;;;;;;5059207;28;20123;-71
2023/07/21 02:27:16;;;;;;;5.25;3.28;;;12.40;99.90;;;;;;5041538;28;20040;-71
2023/07/21 02:29:48;;;;;;;4.80;3.00;;;12.40;99.90;;;;;;5062635;28;20052;-71
2023/07/21 02:32:14;;;;;;;4.32;2.90;;;12.50;99.90;;;;;;5059765;28;20082;-71
2023/07/21 02:34:41;;;;;;;4.07;3.10;;;12.40;99.90;;;;;;5044747;28;20522;-71
2023/07/21 02:37:10;;;;;;;4.50;3.28;;;12.40;99.90;;;;;;5062670;28;20106;-71
2023/07/21 02:39:35;;;;;;;5.20;2.97;;;12.40;99.90;;;;;;5064418;28;20059;-71
2023/07/21 02:42:01;;;;;;;4.38;3.00;;;12.50;99.90;;;;;;5057405;28;20052;-71
2023/07/21 02:44:30;;;;;;;4.15;3.20;;;12.50;99.90;;;;;;5047046;28;20036;-70
2023/07/21 02:46:57;;;;;;;3.92;3.00;;;12.40;99.90;;;;;;5044521;28;20087;-71
2023/07/21 02:49:23;;;;;;;4.63;3.30;;;12.40;99.90;;;;;;5062369;28;20123;-71
2023/07/21 02:51:49;;;;;;;5.25;3.20;;;12.40;99.90;;;;;;5058460;28;20049;-71
2023/07/21 02:54:14;;;;;;;4.72;3.40;;;12.40;99.90;;;;;;5059584;28;20032;-71
2023/07/21 02:56:41;;;;;;;3.92;3.10;;;12.30;99.90;;;;;;5059598;28;20071;-71
2023/07/21 02:59:08;;;;;;;5.57;3.35;;;12.30;99.90;;;;;;5059726;28;20060;-71
2023/07/21 03:01:35;;;;;;;5.63;3.00;;;12.30;99.90;;;;;;5060322;28;20086;-71
2023/07/21 03:04:02;;;;;;;4.57;3.38;;;12.30;99.90;;;;;;5062708;28;20064;-71
2023/07/21 03:06:30;;;;;;;5.13;2.67;;;12.30;99.90;;;;;;5060351;28;20131;-71
2023/07/21 03:08:56;;;;;;;4.82;2.75;;;12.30;99.90;;;;;;5061891;28;20056;-70
2023/07/21 03:11:23;;;;;;;3.95;3.08;;;12.30;99.90;;;;;;5044413;28;20044;-71
2023/07/21 03:13:49;;;;;;;4.25;3.08;;;12.30;99.90;;;;;;5059864;28;20048;-71
2023/07/21 03:16:15;;;;;;;5.30;3.05;;;12.20;99.90;;;;;;5059127;28;20387;-71
2023/07/21 03:18:44;;;;;;;5.03;3.13;;;12.20;99.90;;;;;;5045198;28;20044;-71
2023/07/21 03:21:10;;;;;;;4.57;2.78;;;12.20;99.90;;;;;;5059501;28;20033;-70
2023/07/21 03:23:37;;;;;;;4.25;2.70;;;12.20;99.90;;;;;;5061228;28;20056;-71
2023/07/21 03:26:02;;;;;;;3.88;2.65;;;12.20;99.90;;;;;;5058439;28;20052;-71
2023/07/21 03:28:29;;;;;;;4.45;3.40;;;12.10;99.90;;;;;;5055040;28;20175;-73
2023/07/21 03:31:02;;;;;;;5.82;3.45;;;12.10;99.90;;;;;;5067826;28;20056;-71
2023/07/21 03:33:28;;;;;;;5.05;3.20;;;12.10;99.90;;;;;;5042934;28;20481;-71
2023/07/21 03:36:01;;;;;;;6.68;3.65;;;12.10;99.90;;;;;;5040200;28;20040;-71
2023/07/21 03:38:28;;;;;;;5.22;4.03;;;12.10;99.90;;;;;;5060188;28;20045;-71
2023/07/21 03:41:04;;;;;;;3.97;2.50;;;12.10;99.90;;;;;;5040344;28;20057;-70
2023/07/21 03:43:31;;;;;;;3.42;2.08;;;12.00;99.90;;;;;;5042494;28;20055;-72
2023/07/21 03:46:02;;;;;;;2.10;1.70;;;12.00;99.90;;;;;;5057620;28;20544;-73
2023/07/21 03:48:29;;;;;;;4.35;2.17;;;11.90;99.90;;;;;;5054638;28;20079;-73
2023/07/21 03:51:04;;;;;;;3.10;2.53;;;11.90;99.90;;;;;;5056374;28;20044;-73
2023/07/21 03:53:31;;;;;;;3.75;2.53;;;11.90;99.90;;;;;;5058644;28;20048;-73
2023/07/21 03:55:57;;;;;;;4.25;2.60;;;11.80;99.90;;;;;;5058151;28;20044;-73
2023/07/21 03:58:23;;;;;;;3.95;2.25;;;11.90;99.90;;;;;;5057565;28;20044;-73
2023/07/21 04:00:49;;;;;;;4.47;2.20;;;11.90;99.90;;;;;;5058641;28;20123;-71
2023/07/21 04:03:17;;;;;;;4.82;2.83;;;11.90;99.90;;;;;;5034022;28;20049;-71
2023/07/21 04:05:43;;;;;;;5.70;3.97;;;11.80;99.90;;;;;;5062221;28;20044;-71
2023/07/21 04:08:09;;;;;;;6.78;3.95;;;11.80;99.90;;;;;;5061714;28;20375;-71
2023/07/21 04:10:40;;;;;;;5.88;3.88;;;11.90;99.90;;;;;;5061130;28;20043;-71
2023/07/21 04:13:06;;;;;;;4.47;3.30;;;11.90;99.90;;;;;;5060091;28;20098;-71
2023/07/21 04:15:32;;;;;;;5.47;3.70;;;11.90;99.90;;;;;;5061268;28;20406;-72
2023/07/21 04:17:58;;;;;;;4.82;3.50;;;11.90;99.90;;;;;;5061014;28;20052;-71
2023/07/21 04:20:24;;;;;;;6.20;4.22;;;11.90;99.90;;;;;;5056981;28;20071;-75
2023/07/21 04:22:51;;;;;;;5.35;4.05;;;11.90;99.90;;;;;;5058076;28;20072;-71
2023/07/21 04:25:18;;;;;;;6.30;4.40;;;12.00;99.90;;;;;;5057725;28;20078;-71
2023/07/21 04:27:50;;;;;;;5.57;4.15;;;12.00;99.90;;;;;;5060997;28;20051;-71
2023/07/21 04:30:19;;;;;;;7.07;4.65;;;12.00;99.90;;;;;;5059318;28;20410;-71
2023/07/21 04:32:48;;;;;;;7.07;4.85;;;12.00;99.90;;;;;;5056272;28;20101;-74
2023/07/21 04:35:16;;;;;;;7.60;4.90;;;12.00;99.90;;;;;;5060711;28;20048;-72
2023/07/21 04:37:42;;;;;;;8.15;5.40;;;12.00;99.90;;;;;;5039961;28;20045;-72
2023/07/21 04:40:08;;;;;;;8.18;5.88;;;12.00;99.90;;;;;;5058214;28;20553;-71
2023/07/21 04:42:34;;;;;;;6.18;5.10;;;12.10;99.90;;;;;;5057800;28;20586;-71
2023/07/21 04:45:00;;;;;;;6.93;5.18;;;12.10;99.90;;;;;;5057968;28;20734;-71
2023/07/21 04:47:26;;;;;;;7.78;5.85;;;12.10;99.90;;;;;;5043446;28;21509;-71
2023/07/21 04:49:53;;;;;;;5.95;5.10;;;12.10;99.90;;;;;;5055033;28;21972;-71
2023/07/21 04:52:19;;;;;;;7.15;5.75;;;12.10;99.90;;;;;;5042848;28;20075;-71
2023/07/21 04:54:45;;;;;;;7.13;5.75;;;12.20;99.90;;;;;;5059861;28;20499;-71
2023/07/21 04:57:11;;;;;;;7.18;5.70;;;12.20;99.90;;;;;;5041326;28;20105;-71
2023/07/21 04:59:40;;;;;;;8.40;5.50;;;12.30;99.90;;;;;;5057896;28;20044;-71
2023/07/21 05:02:06;;;;;;;7.28;5.68;;;12.30;99.90;;;;;;5041348;28;20952;-71
2023/07/21 05:04:31;;;;;;;7.50;5.57;;;12.40;99.90;;;;;;5056047;28;20047;-71
2023/07/21 05:06:57;;;;;;;8.27;5.57;;;12.40;99.90;;;;;;5058238;28;20044;-71
2023/07/21 05:09:23;;;;;;;7.72;6.28;;;12.50;99.90;;;;;;5056083;28;20384;-71
2023/07/21 05:11:49;;;;;;;7.50;5.82;;;12.50;99.90;;;;;;5041325;28;20044;-71
2023/07/21 05:14:17;;;;;;;9.95;6.28;;;12.60;99.90;;;;;;5059264;28;20084;-71
2023/07/21 05:16:43;;;;;;;8.00;5.53;;;12.70;99.90;;;;;;5039481;28;20048;-71
2023/07/21 05:19:12;;;;;;;7.68;5.60;;;12.70;99.90;;;;;;5056914;28;20052;-71
2023/07/21 05:21:40;;;;;;;9.73;5.80;;;12.70;99.90;;;;;;5038625;28;20048;-71
2023/07/21 05:24:06;;;;;;;8.20;6.10;;;12.80;99.90;;;;;;5039910;28;20067;-71
2023/07/21 05:26:35;;;;;;;12.23;6.97;;;12.80;99.90;;;;;;5052657;28;20052;-71
2023/07/21 05:29:03;;;;;;;6.47;5.88;;;12.80;99.90;;;;;;5036311;28;20146;-72
2023/07/21 05:31:29;;;;;;;6.72;5.82;;;12.90;99.90;;;;;;5056850;28;20054;-71
2023/07/21 05:33:55;;;;;;;7.40;5.43;;;12.90;99.90;;;;;;5038617;28;20044;-71
2023/07/21 05:36:21;;;;;;;6.72;5.07;;;12.90;99.90;;;;;;5057240;28;20047;-71
2023/07/21 05:38:47;;;;;;;8.82;5.65;;;12.90;99.90;;;;;;5058016;28;20056;-71
2023/07/21 05:41:12;;;;;;;8.48;5.68;;;12.90;99.90;;;;;;5057365;28;20041;-71
2023/07/21 05:43:38;;;;;;;7.45;5.30;;;13.00;99.90;;;;;;5040625;28;20098;-71
2023/07/21 05:46:06;;;;;;;8.88;5.65;;;13.10;99.90;;;;;;5057289;28;20072;-71
2023/07/21 05:48:32;;;;;;;8.93;5.63;;;13.10;99.90;;;;;;5059699;28;20045;-71
2023/07/21 05:50:58;;;;;;;9.23;5.65;;;13.20;99.90;;;;;;5039852;28;20333;-71
2023/07/21 05:53:25;;;;;;;6.60;5.80;;;13.20;99.90;;;;;;5039587;28;20502;-71
2023/07/21 05:55:50;;;;;;;8.02;5.65;;;13.30;99.90;;;;;;5055993;28;20060;-71
2023/07/21 05:58:18;;;;;;;8.65;5.45;;;13.40;99.90;;;;;;5039123;28;20048;-72
2023/07/21 06:00:45;;;;;;;7.82;4.70;;;13.40;99.90;;;;;;5053130;28;20805;-71
2023/07/21 06:03:11;;;;;;;7.40;5.07;;;13.50;99.90;;;;;;5050252;28;20484;-71
2023/07/21 06:05:37;;;;;;;6.88;4.35;;;13.60;99.90;;;;;;5059214;28;20120;-71
2023/07/21 06:08:06;;;;;;;5.20;3.40;;;13.70;99.90;;;;;;5059461;28;20044;-71
2023/07/21 06:10:32;;;;;;;5.00;3.05;;;13.80;99.90;;;;;;5042260;28;20559;-71
2023/07/21 06:12:58;;;;;;;6.75;3.28;;;13.80;99.90;;;;;;5040991;28;20056;-71
2023/07/21 06:15:24;;;;;;;6.88;2.85;;;13.90;99.90;;;;;;5058804;28;20059;-71
2023/07/21 06:17:52;;;;;;;5.15;2.10;;;13.90;99.90;;;;;;5059163;28;20052;-71
2023/07/21 06:20:20;;;;;;;5.88;2.22;;;14.00;99.90;;;;;;5057511;28;20080;-71
2023/07/21 06:22:47;;;;;;;4.60;2.20;;;14.20;99.90;;;;;;5059129;28;20582;-71
2023/07/21 06:25:13;;;;;;;3.25;2.17;;;14.20;99.90;;;;;;5038728;28;20088;-71
2023/07/21 06:27:39;;;;;;;3.60;2.20;;;14.30;99.90;;;;;;5039845;28;20072;-71
2023/07/21 06:30:05;;;;;;;4.82;2.33;;;14.40;99.90;;;;;;5057247;28;20036;-71
2023/07/21 06:32:31;;;;;;;3.33;1.67;;;14.40;99.90;;;;;;5056944;28;20041;-71
2023/07/21 06:34:57;;;;;;;4.15;2.00;;;14.50;99.90;;;;;;5054683;28;20052;-71
2023/07/21 06:37:23;;;;;;;3.83;2.08;;;14.60;99.90;;;;;;5055859;28;20072;-73
2023/07/21 06:39:50;;;;;;;7.40;2.40;;;14.70;99.90;;;;;;5041399;28;20045;-74
2023/07/21 06:42:16;;;;;;;5.57;2.58;;;14.80;99.90;;;;;;5055773;28;20515;-73
2023/07/21 06:44:42;;;;;;;5.45;2.58;;;14.80;99.90;;;;;;5057973;28;20138;-74
2023/07/21 06:47:08;;;;;;;5.57;2.53;;;14.90;99.90;;;;;;5057357;28;20051;-73
2023/07/21 06:49:34;;;;;;;4.00;2.60;;;15.00;99.90;;;;;;5040349;28;20040;-74
2023/07/21 06:51:59;;;;;;;5.15;2.67;;;15.10;99.90;;;;;;5037526;28;20598;-74
2023/07/21 06:54:29;;;;;;;6.07;2.40;;;15.30;99.90;;;;;;5053876;28;20045;-74
2023/07/21 06:56:55;;;;;;;4.70;2.10;;;15.40;99.90;;;;;;5039251;28;20040;-73
2023/07/21 06:59:21;;;;;;;4.93;1.98;;;15.60;99.90;;;;;;5040198;28;20082;-73
2023/07/21 07:01:47;;;;;;;3.83;2.10;;;15.70;99.90;;;;;;5054501;28;20079;-74
2023/07/21 07:04:12;;;;;;;5.15;2.45;;;15.90;99.90;;;;;;5052911;28;20918;-74
2023/07/21 07:06:38;;;;;;;3.72;2.10;;;16.10;99.90;;;;;;5039961;28;20727;-73
2023/07/21 07:09:04;;;;;;;4.45;1.85;;;16.30;99.90;;;;;;5054004;28;20047;-74
2023/07/21 07:11:30;;;;;;;4.53;2.10;;;16.40;99.90;;;;;;5039481;28;20759;-73
2023/07/21 07:13:56;;;;;;;4.35;2.30;;;16.50;99.90;;;;;;5055956;28;20055;-73
2023/07/21 07:16:22;;;;;;;4.57;2.03;;;16.60;99.90;;;;;;5060087;28;20040;-73
2023/07/21 07:18:47;;;;;;;3.63;2.10;;;16.70;99.90;;;;;;5061673;28;20135;-73
2023/07/21 07:21:14;;;;;;;4.05;1.63;;;16.80;99.90;;;;;;5043041;28;20566;-73
2023/07/21 07:23:40;;;;;;;3.70;2.25;;;16.90;99.90;;;;;;5058306;28;20052;-73
2023/07/21 07:26:06;;;;;;;4.30;2.00;;;17.00;99.90;;;;;;5058229;28;20384;-73
2023/07/21 07:28:32;;;;;;;4.60;2.05;;;17.10;99.90;;;;;;5039747;28;20032;-74
2023/07/21 07:31:03;;;;;;;4.00;2.28;;;17.20;99.90;;;;;;5043888;28;20051;-74
2023/07/21 07:33:29;;;;;;;6.35;2.40;;;17.30;99.90;;;;;;5060570;28;20172;-74
2023/07/21 07:35:55;;;;;;;2.97;1.80;;;17.50;99.90;;;;;;5042117;28;20151;-74
2023/07/21 07:38:27;;;;;;;4.85;2.00;;;17.60;99.90;;;;;;5057868;28;20117;-74
2023/07/21 07:40:53;;;;;;;4.90;1.88;;;17.60;99.90;;;;;;5040982;28;20777;-74
2023/07/21 07:43:19;;;;;;;2.40;1.60;;;17.80;99.90;;;;;;5045226;28;20067;-74
2023/07/21 07:45:44;;;;;;;5.40;1.83;;;17.90;99.90;;;;;;5057784;28;20383;-74
2023/07/21 07:48:11;;;;;;;4.20;1.80;;;18.00;99.90;;;;;;5058300;28;20119;-74
2023/07/21 07:50:41;;;;;;;3.45;1.95;;;18.10;99.90;;;;;;5040789;28;20044;-74
2023/07/21 07:53:11;;;;;;;2.72;1.27;;;18.30;99.90;;;;;;5056334;28;20036;-74
2023/07/21 07:55:38;;;;;;;2.97;1.23;;;18.40;99.90;;;;;;5057780;28;20090;-74
2023/07/21 07:58:04;;;;;;;3.60;1.30;;;18.40;99.90;;;;;;5039892;28;20494;-75
2023/07/21 08:00:30;;;;;;;1.77;1.30;;;18.60;99.90;;;;;;5059301;28;20063;-75
2023/07/21 08:02:56;;;;;;;2.25;1.20;;;18.70;99.90;;;;;;5058302;28;20052;-74
2023/07/21 08:05:22;;;;;;;2.45;1.17;;;18.70;99.90;;;;;;5058931;28;20040;-74
2023/07/21 08:07:48;;;;;;;3.03;0.98;;;18.70;99.90;;;;;;5056931;28;20131;-75
2023/07/21 08:10:14;;;;;;;2.72;1.23;;;18.50;99.90;;;;;;5056750;28;20053;-74
2023/07/21 08:12:40;;;;;;;2.20;1.17;;;18.60;99.90;;;;;;5058391;28;20048;-74
2023/07/21 08:15:06;;;;;;;1.65;1.08;;;18.70;99.90;;;;;;5057426;28;21236;-74
2023/07/21 08:17:38;;;;;;;1.90;1.00;;;18.80;99.90;;;;;;5041632;28;20055;-74
2023/07/21 08:20:05;;;;;;;2.88;1.40;;;18.90;99.90;;;;;;5058956;28;20683;-74
2023/07/21 08:22:31;;;;;;;2.85;1.40;;;19.00;99.90;;;;;;5040855;28;20817;-74
2023/07/21 08:24:57;;;;;;;3.55;1.60;;;19.10;99.90;;;;;;5040675;28;20043;-74
2023/07/21 08:27:23;;;;;;;3.15;1.30;;;19.20;99.90;;;;;;5039947;28;20036;-74
2023/07/21 08:29:48;;;;;;;2.70;1.13;;;19.40;99.90;;;;;;5042010;28;20044;-74
2023/07/21 08:32:14;;;;;;;1.73;1.20;;;19.60;99.90;;;;;;5040909;28;20051;-74
2023/07/21 08:34:40;;;;;;;1.50;0.90;;;19.70;99.90;;;;;;5057257;28;20063;-74
2023/07/21 08:37:06;;;;;;;2.83;1.40;;;19.80;99.90;;;;;;5057513;28;20068;-74
2023/07/21 08:39:32;;;;;;;2.63;1.30;;;19.90;99.90;;;;;;5056191;28;20799;-74
2023/07/21 08:42:00;;;;;;;4.10;1.40;;;20.10;99.90;;;;;;5058265;28;20518;-74
2023/07/21 08:44:28;;;;;;;2.47;1.20;;;20.20;99.90;;;;;;5053074;28;20701;-74
2023/07/21 08:46:54;;;;;;;2.67;1.20;;;20.20;99.90;;;;;;5061539;28;20048;-74
2023/07/21 08:49:19;;;;;;;2.45;1.02;;;20.30;99.90;;;;;;5055476;28;20040;-74
2023/07/21 08:51:45;;;;;;;2.70;1.42;;;20.40;99.90;;;;;;5058661;28;20053;-74
2023/07/21 08:54:12;;;;;;;5.35;1.40;;;20.50;99.90;;;;;;5035940;28;20040;-74
2023/07/21 08:56:38;;;;;;;3.75;1.30;;;20.50;99.90;;;;;;5058765;28;20621;-74
2023/07/21 08:59:04;;;;;;;2.53;1.20;;;20.60;99.90;;;;;;5041992;28;20127;-74
2023/07/21 09:01:29;;;;;;;3.30;1.45;;;20.60;99.70;;;;;;5057892;28;20036;-74
2023/07/21 09:03:55;;;;;;;2.35;1.30;;;20.70;99.30;;;;;;5057478;28;20411;-74
2023/07/21 09:06:21;;;;;;;2.17;1.30;;;20.80;98.70;;;;;;5048530;28;20636;-74
2023/07/21 09:08:50;;;;;;;2.40;1.23;;;20.80;97.70;;;;;;5057843;28;20057;-75
2023/07/21 09:11:16;;;;;;;2.88;1.10;;;20.90;98.10;;;;;;5056145;28;20040;-74
2023/07/21 09:13:51;;;;;;;2.60;1.33;;;21.00;97.80;;;;;;5057236;28;20054;-74
2023/07/21 09:16:19;;;;;;;1.90;1.17;;;21.20;97.10;;;;;;5055006;28;20052;-73
2023/07/21 09:18:46;;;;;;;2.45;1.30;;;21.20;97.30;;;;;;5029518;28;20094;-73
2023/07/21 09:21:20;;;;;;;2.88;1.17;;;21.30;96.50;;;;;;5050796;28;20048;-72
2023/07/21 09:23:46;;;;;;;1.90;1.35;;;21.30;96.20;;;;;;5038131;28;20051;-73
2023/07/21 09:26:15;;;;;;;3.10;1.77;;;21.30;97.20;;;;;;5038729;28;20044;-72
2023/07/21 09:28:44;;;;;;;3.17;1.50;;;21.40;96.60;;;;;;5054451;28;20044;-72
2023/07/21 09:31:14;;;;;;;2.72;1.17;;;21.50;96.40;;;;;;5055992;28;20509;-72
2023/07/21 09:33:44;;;;;;;;;;;21.60;95.90;;;;;;5040027;28;20044;-73
2023/07/21 09:36:12;;;;;;;2.67;1.23;;;21.70;95.70;;;;;;5056377;28;19928;-72
2023/07/21 09:38:39;;;;;;;2.00;1.50;;;21.70;95.10;;;;;;5058594;28;20056;-73
2023/07/21 09:41:09;;;;;;;2.45;1.30;;;21.70;92.90;;;;;;5053924;28;20045;-73
2023/07/21 09:43:36;;;;;;;3.83;1.30;;;21.90;95.10;;;;;;5043582;28;20078;-73
2023/07/21 09:46:04;;;;;;;1.88;1.10;;;22.00;94.90;;;;;;5040149;28;20376;-73
2023/07/21 09:48:31;;;;;;;2.10;1.30;;;22.20;94.30;;;;;;5040905;28;20143;-71
2023/07/21 09:51:00;;;;;;;2.80;1.10;;;22.20;93.20;;;;;;5053530;28;20048;-73
2023/07/21 09:53:41;;;;;;;1.63;1.13;;;22.20;91.90;;;;;;5057006;28;20448;-74
2023/07/21 09:56:09;;;;;;;2.22;1.10;;;22.20;92.80;;;;;;5056361;28;20044;-74
2023/07/21 09:58:38;;;;;;;2.95;1.30;;;22.10;93.30;;;;;;5040054;28;20048;-73
2023/07/21 10:01:05;;;;;;;2.60;1.38;;;22.00;95.00;;;;;;5050945;28;20484;-73
2023/07/21 10:03:32;;;;;;;2.65;1.23;;;21.80;96.10;;;;;;5029018;28;20127;-74
2023/07/21 10:06:02;;;;;;;3.28;1.40;;;21.60;94.60;;;;;;5055056;28;20049;-73
2023/07/21 10:08:30;;;;;;;2.13;1.45;;;21.40;93.80;;;;;;5049704;28;20040;-74
2023/07/21 10:10:57;;;;;;;1.58;1.02;;;21.20;95.70;;;;;;5056565;28;20052;-73
2023/07/21 10:13:27;;;;;;;1.52;1.13;;;21.00;97.00;;;;;;5055969;28;20051;-74
2023/07/21 10:16:00;;;;;;;1.95;1.20;;;21.00;98.40;;;;;;5055693;28;20064;-74
2023/07/21 10:18:26;;;;;;;3.60;1.33;;;20.90;98.80;;;;;;5041241;28;21735;-74
2023/07/21 10:20:56;;;;;;;2.10;1.33;;;20.80;98.00;;;;;;5034127;28;20418;-74
2023/07/21 10:23:37;;;;;;;2.05;1.20;;;20.90;98.40;;;;;;5057557;28;20052;-74
2023/07/21 10:26:09;;;;;;;2.35;1.50;;;21.00;98.70;;;;;;5054714;28;20068;-73
2023/07/21 10:28:43;;;;;;;2.45;1.30;;;21.20;97.30;;;;;;5040397;28;20060;-73
2023/07/21 10:31:22;;;;;;;1.80;1.25;;;21.40;96.20;;;;;;5048604;28;20048;-74
2023/07/21 10:34:14;;;;;;;2.42;1.30;;;21.60;95.50;;;;;;5038210;28;20139;-73
2023/07/21 10:36:52;;;;;;;2.22;1.60;;;21.70;93.70;;;;;;5038203;28;20053;-74
2023/07/21 10:39:21;;;;;;;2.92;1.50;;;21.60;94.20;;;;;;5055749;28;20112;-74
2023/07/21 10:41:52;;;;;;;2.90;1.63;;;21.50;95.30;;;;;;5057525;28;20526;-74
2023/07/21 10:44:18;;;;;;;3.13;1.90;;;21.30;96.30;;;;;;5040091;28;20186;-74
2023/07/21 10:46:46;;;;;;;3.90;1.80;;;21.20;97.20;;;;;;5057323;28;20045;-74
2023/07/21 10:49:14;;;;;;;2.03;1.25;;;21.20;98.50;;;;;;5058529;28;20221;-73
2023/07/21 10:51:46;;;;;;;2.65;1.38;;;21.20;98.10;;;;;;5061389;28;20113;-73
2023/07/21 10:54:13;;;;;;;3.35;1.50;;;21.20;97.00;;;;;;5045090;28;20048;-74
2023/07/21 10:56:43;;;;;;;2.30;1.60;;;21.30;96.90;;;;;;5035180;28;20677;-74
2023/07/21 10:59:10;;;;;;;2.25;1.50;;;21.40;97.40;;;;;;5060644;28;20083;-73
2023/07/21 11:01:46;;;;;;;3.13;1.90;;;21.40;97.20;;;;;;5052583;28;20474;-73
2023/07/21 11:04:16;;;;;;;4.13;1.70;;;21.40;97.30;;;;;;5059216;28;20116;-73
2023/07/21 11:06:49;;;;;;;2.35;1.75;;;21.40;96.40;;;;;;5062437;28;20113;-73
2023/07/21 11:09:16;;;;;;;3.67;1.67;;;21.30;96.50;;;;;;5045560;28;20048;-73
2023/07/21 11:11:44;;;;;;;2.90;1.73;;;21.30;97.00;;;;;;5057622;28;20048;-73
2023/07/21 11:14:19;;;;;;;3.42;1.60;;;21.30;97.00;;;;;;5044626;28;20498;-73
2023/07/21 11:17:00;;;;;;;3.05;1.50;;;21.20;96.90;;;;;;5056116;28;20052;-75
2023/07/21 11:19:33;;;;;;;2.35;1.27;;;21.10;95.50;;;;;;5060776;28;20072;-74
2023/07/21 11:21:59;;;;;;;2.17;1.30;;;21.00;94.90;;;;;;5062261;28;20056;-74
2023/07/21 11:24:29;;;;;;;2.75;1.30;;;20.90;95.60;;;;;;5040569;28;20064;-74
2023/07/21 11:27:01;;;;;;;1.50;1.20;;;21.00;94.70;;;;;;5058553;28;20585;-75
2023/07/21 11:29:31;;;;;;;2.17;1.00;;;21.10;95.10;;;;;;5041775;28;20524;-75
2023/07/21 11:31:57;;;;;;;;;;;21.20;93.60;;;;;;5074262;28;20052;-75
2023/07/21 11:34:28;;;;;;;2.90;1.00;;;21.30;94.50;;;;;;5043902;28;19982;-73
2023/07/21 11:36:59;;;;;;;1.50;0.80;;;21.60;94.30;;;;;;5044758;28;20145;-74
2023/07/21 11:39:27;;;;;;;2.33;1.25;;;22.00;94.00;;;;;;5057024;28;20055;-74
2023/07/21 11:41:58;;;;;;;1.50;1.00;;;22.30;93.30;;;;;;5061512;28;20568;-74
2023/07/21 11:44:30;;;;;;;1.70;1.20;;;22.40;90.80;;;;;;5058961;28;20157;-74
2023/07/21 11:47:04;;;;;;;2.40;1.20;;;22.60;90.20;;;;;;5061507;28;20086;-74
2023/07/21 11:49:32;;;;;;;1.63;1.10;;;22.80;87.80;;;;;;5044021;28;20048;-75
2023/07/21 11:51:59;;;;;;;2.45;1.15;;;22.90;86.70;;;;;;5043309;28;20226;-74
2023/07/21 11:54:46;;;;;;;1.45;0.90;;;23.00;85.90;;;;;;5060682;28;20040;-74
2023/07/21 11:57:12;;;;;;;2.38;1.20;;;23.20;84.70;;;;;;5040367;28;20091;-74
2023/07/21 11:59:38;;;;;;;2.22;1.20;;;23.30;85.00;;;;;;5044014;28;20127;-74
2023/07/21 12:02:06;;;;;;;2.10;1.23;;;23.40;84.10;;;;;;5041671;28;20076;-74
2023/07/21 12:04:33;;;;;;;3.22;1.50;;;23.50;82.70;;;;;;5060306;28;20036;-74
2023/07/21 12:07:00;;;;;;;3.17;1.00;;;23.60;82.50;;;;;;5058577;28;20096;-74
2023/07/21 12:09:26;;;;;;;2.72;1.13;;;23.50;82.10;;;;;;5041786;28;20106;-74
2023/07/21 12:11:54;;;;;;;2.45;1.02;;;23.60;81.70;;;;;;5059360;28;20616;-75
2023/07/21 12:14:20;;;;;;;2.40;1.10;;;23.60;80.50;;;;;;5044399;28;20102;-74
2023/07/21 12:16:46;;;;;;;1.85;1.08;;;23.40;78.00;;;;;;5059339;28;20040;-73
2023/07/21 12:19:13;;;;;;;1.20;0.80;;;23.10;79.00;;;;;;5041822;28;20076;-73
2023/07/21 12:21:39;;;;;;;1.73;0.93;;;23.00;80.30;;;;;;5042592;28;20043;-73
2023/07/21 12:24:05;;;;;;;2.38;1.17;;;22.90;80.70;;;;;;5043913;28;20072;-73
2023/07/21 12:26:32;;;;;;;1.35;1.00;;;22.70;80.50;;;;;;5050243;28;20078;-73
2023/07/21 12:28:58;;;;;;;2.15;1.00;;;22.70;81.40;;;;;;5059723;28;20567;-73
2023/07/21 12:31:25;;;;;;;1.60;0.77;;;22.60;81.90;;;;;;5042351;28;20048;-74
2023/07/21 12:33:51;;;;;;;1.95;0.93;;;22.50;82.70;;;;;;5044172;28;20049;-73
2023/07/21 12:36:18;;;;;;;1.95;1.20;;;22.40;81.50;;;;;;5041217;28;20047;-73
2023/07/21 12:38:46;;;;;;;2.17;1.13;;;22.30;83.00;;;;;;5042748;28;20131;-73
2023/07/21 12:41:12;;;;;;;2.83;1.35;;;22.20;84.60;;;;;;5059276;28;20123;-73
2023/07/21 12:43:38;;;;;;;2.35;1.27;;;22.10;85.20;;;;;;5053831;28;20109;-73
2023/07/21 12:46:05;;;;;;;1.85;0.85;;;22.00;87.10;;;;;;5041963;28;20127;-73
2023/07/21 12:48:31;;;;;;;1.80;0.98;;;21.90;88.20;;;;;;5058672;28;20164;-73
2023/07/21 12:50:57;;;;;;;3.03;0.85;;;21.70;87.10;;;;;;5057943;28;20734;-73